Terminal Aerodrome Forecast
Issued by NWS Sioux Falls, SD

Home | Current Version | Previous Version | Text Only | Print | Product List | Glossary On
Versions: 1 2 3 4 5 6 7 8 9 10 11 12 13 14 15 16 17 18 19 20 21 22 23 24 25 26
000
FTUS43 KFSD 052343
TAFSUX
TAF
KSUX 052343Z 0600/0624 17018G25KT P6SM SCT035
     FM060200 16014KT P6SM FEW090 BKN250
     FM060900 18010KT P6SM VCTS SCT060CB OVC150
      TEMPO 0610/0612 VRB25G40KT 3SM TSRA BKN025CB
     FM061400 34015G23KT 6SM SHRA SCT020 OVC050
     FM061900 36018G26KT P6SM SCT100=

USA.gov is the U.S. government's official web portal to all federal, state and local government web resources and services.